Portada
METAR-TAF:

METAR-TAF

Aeroports :

Ciudad Obregón, Mèxic

latitud: 27-24N, longitud: 109-50W, altitud: 62 m

Observació

L'informe es va fer fa 10 hores i 57 minuts, a les 01:40 UTC
Vent 3 kt del Oest/Sud-Oest
Temperatura 28°C
Humitat 70%
Pressió 1005 hPa
Visibilitat: 16.1 km
Cel clar

METAR: MMCN 170140Z 24003KT 10SM SKC 28/22 A2968 RMK HZY

Hora: 05:37 (12:37 UTC)

Pronòstic

L'informe es va fer fa 7 hores i 32 minuts, a les 05:05 UTC
Pronòstic vàlid del 17 a les 06 UTC al 18 a les 06 UTC
Vent 4 kt del Sud
Visibilitat: 10 km
Cel clar
A partir de les 17 a les 1800 UTC
Vent 8 kt del Oest/Sud-Oest
Visibilitat: 10 km
Núvols disperses a una alçada de 3000 ft
Evolucionant progressivament
l' 18 a les 03 UTC al 18 a les 05 UTC
Vent 5 kt del Oest
Cel clar

TAF: MMCN 170505Z 1706/1806 19004KT P6SM SKC FM171800 25008KT P6SM SCT030 BECMG 1803/1805 26005KT SKC

Observacions i pronòstics meteorològics de més de 4000 aeroports (METAR i TAF).

Les estacions disponibles són els punts grocs i vermells al mapa.

Posi el ratolí al punt desitjat per veure el nom de l'estació.

Feu clic per veure les observacions i els pronòstics meteorològics.

Per canviar el mapa: feu clic els botons verds amb una creu de color negre per apropar; al botó verd amb un guió per allunyar la imatge; o en les fletxes verdes per a mapes adjacents.


METAR-TAF: